createdAt,value
2023-01-30T00:00:00.000Z,271.21
2023-01-30T00:02:04.000Z,271.21
2023-01-30T00:03:28.000Z,271.21
2023-01-30T00:05:32.000Z,271.21
2023-01-30T00:06:56.000Z,271.27
2023-01-30T00:09:00.000Z,271.21
2023-01-30T00:10:24.000Z,271.21
2023-01-30T00:12:27.000Z,271.27
2023-01-30T00:13:52.000Z,271.27
2023-01-30T00:15:55.000Z,271.34
2023-01-30T00:17:20.000Z,271.34
2023-01-30T00:19:23.000Z,271.27
2023-01-30T00:20:48.000Z,271.27
2023-01-30T00:22:51.000Z,271.21
2023-01-30T00:25:48.000Z,271.21
2023-01-30T00:27:13.000Z,271.21
2023-01-30T00:29:16.000Z,271.21
2023-01-30T00:30:40.000Z,271.27
2023-01-30T00:32:44.000Z,271.34
2023-01-30T00:34:08.000Z,271.34
2023-01-30T00:36:12.000Z,271.4
2023-01-30T00:37:36.000Z,271.4
2023-01-30T00:39:40.000Z,271.46
2023-01-30T00:41:04.000Z,271.46
2023-01-30T00:44:32.000Z,271.46
2023-01-30T00:46:35.000Z,271.52
2023-01-30T00:48:00.000Z,271.52
2023-01-30T00:50:03.000Z,271.52
2023-01-30T00:51:27.000Z,271.46
2023-01-30T00:53:31.000Z,271.46
2023-01-30T00:54:55.000Z,271.46
2023-01-30T00:56:59.000Z,271.46
2023-01-30T00:58:23.000Z,271.52
2023-01-30T01:00:27.000Z,271.52
2023-01-30T01:03:16.000Z,271.52
2023-01-30T01:04:40.000Z,271.52
2023-01-30T01:06:44.000Z,271.52
2023-01-30T01:08:08.000Z,271.59
2023-01-30T01:10:11.000Z,271.59
2023-01-30T01:11:36.000Z,271.59
2023-01-30T01:13:39.000Z,271.59
2023-01-30T01:15:04.000Z,271.65
2023-01-30T01:17:07.000Z,271.65
2023-01-30T01:18:32.000Z,271.59
2023-01-30T01:20:35.000Z,271.65
2023-01-30T01:21:59.000Z,271.71
2023-01-30T01:24:03.000Z,271.71
2023-01-30T01:25:27.000Z,271.71
2023-01-30T01:27:31.000Z,271.71
2023-01-30T01:28:55.000Z,271.71
2023-01-30T01:30:59.000Z,271.77
2023-01-30T01:32:23.000Z,271.77
2023-01-30T01:34:27.000Z,271.77
2023-01-30T01:35:51.000Z,271.77
2023-01-30T01:37:54.000Z,271.84
2023-01-30T01:40:44.000Z,271.9
2023-01-30T01:42:08.000Z,271.9
2023-01-30T01:44:12.000Z,271.96
2023-01-30T01:45:37.000Z,271.96
2023-01-30T01:47:40.000Z,271.9
2023-01-30T01:49:05.000Z,271.96
2023-01-30T01:51:08.000Z,272.02
2023-01-30T01:52:33.000Z,272.02
2023-01-30T01:54:36.000Z,272.02
2023-01-30T01:56:01.000Z,272.02
2023-01-30T01:58:04.000Z,272.02
2023-01-30T01:59:28.000Z,272.02
2023-01-30T02:01:32.000Z,272.02
2023-01-30T02:02:56.000Z,272.02
2023-01-30T02:05:00.000Z,272.02
2023-01-30T02:06:24.000Z,272.09
2023-01-30T02:08:28.000Z,272.09
2023-01-30T02:09:52.000Z,272.09
2023-01-30T02:11:56.000Z,272.09
2023-01-30T02:13:20.000Z,272.15
2023-01-30T02:15:23.000Z,272.15
2023-01-30T02:18:13.000Z,272.15
2023-01-30T02:19:37.000Z,272.09
2023-01-30T02:21:41.000Z,272.09
2023-01-30T02:23:05.000Z,272.09
2023-01-30T02:25:08.000Z,272.15
2023-01-30T02:26:33.000Z,272.15
2023-01-30T02:28:36.000Z,272.15
2023-01-30T02:30:01.000Z,272.21
2023-01-30T02:32:04.000Z,272.21
2023-01-30T02:33:28.000Z,272.21
2023-01-30T02:35:32.000Z,272.21
2023-01-30T02:36:56.000Z,272.27
2023-01-30T02:39:00.000Z,272.21
2023-01-30T02:40:24.000Z,272.27
2023-01-30T02:42:28.000Z,272.34
2023-01-30T02:43:52.000Z,272.34
2023-01-30T02:45:55.000Z,272.34
2023-01-30T02:47:20.000Z,272.34
2023-01-30T02:49:23.000Z,272.4
2023-01-30T02:50:48.000Z,272.46
2023-01-30T02:52:51.000Z,272.4
2023-01-30T02:55:41.000Z,272.4
2023-01-30T02:57:05.000Z,272.4
2023-01-30T02:59:08.000Z,272.46
2023-01-30T03:00:33.000Z,272.46
2023-01-30T03:02:36.000Z,272.46
2023-01-30T03:04:01.000Z,272.46
2023-01-30T03:06:04.000Z,272.52
2023-01-30T03:07:29.000Z,272.59
2023-01-30T03:09:32.000Z,272.59
2023-01-30T03:10:57.000Z,272.59
2023-01-30T03:13:00.000Z,272.65
2023-01-30T03:14:25.000Z,272.65
2023-01-30T03:16:28.000Z,272.71
2023-01-30T03:17:53.000Z,272.71
2023-01-30T03:19:56.000Z,272.77
2023-01-30T03:21:21.000Z,272.77
2023-01-30T03:23:24.000Z,272.84
2023-01-30T03:24:48.000Z,272.84
2023-01-30T03:26:52.000Z,272.9
2023-01-30T03:28:16.000Z,272.84
2023-01-30T03:30:20.000Z,272.84
2023-01-30T03:34:42.000Z,272.9
2023-01-30T03:36:40.000Z,272.84
2023-01-30T03:38:05.000Z,272.84
2023-01-30T03:40:08.000Z,272.84
2023-01-30T03:41:33.000Z,272.84
2023-01-30T03:43:36.000Z,272.84
2023-01-30T03:45:00.000Z,272.9
2023-01-30T03:47:04.000Z,272.84
2023-01-30T03:48:28.000Z,272.84
2023-01-30T03:50:32.000Z,272.84
2023-01-30T03:51:56.000Z,272.84
2023-01-30T03:54:00.000Z,272.84
2023-01-30T03:55:24.000Z,272.77
2023-01-30T03:57:28.000Z,272.84
2023-01-30T03:58:52.000Z,272.84
2023-01-30T04:00:56.000Z,272.9
2023-01-30T04:02:20.000Z,272.96
2023-01-30T04:04:24.000Z,273.15
2023-01-30T04:05:48.000Z,273.09
2023-01-30T04:07:52.000Z,273.15
2023-01-30T04:09:16.000Z,273.15
2023-01-30T04:11:20.000Z,273.21
2023-01-30T04:14:09.000Z,273.09
2023-01-30T04:15:33.000Z,273.02
2023-01-30T04:17:37.000Z,272.96
2023-01-30T04:19:01.000Z,272.96
2023-01-30T04:21:05.000Z,272.96
2023-01-30T04:22:29.000Z,273.02
2023-01-30T04:24:33.000Z,273.02
2023-01-30T04:25:57.000Z,272.96
2023-01-30T04:28:01.000Z,272.9
2023-01-30T04:29:25.000Z,272.9
2023-01-30T04:31:29.000Z,272.84
2023-01-30T04:32:53.000Z,272.9
2023-01-30T04:34:57.000Z,272.9
2023-01-30T04:36:21.000Z,272.96
2023-01-30T04:38:25.000Z,273.02
2023-01-30T04:39:49.000Z,272.96
2023-01-30T04:41:53.000Z,273.02
2023-01-30T04:43:17.000Z,273.09
2023-01-30T04:45:21.000Z,273.15
2023-01-30T04:46:45.000Z,273.15
2023-01-30T04:48:49.000Z,273.27
2023-01-30T04:51:38.000Z,273.27
2023-01-30T04:53:02.000Z,273.27
2023-01-30T04:55:06.000Z,273.4
2023-01-30T04:56:30.000Z,273.4
2023-01-30T04:58:34.000Z,273.46
2023-01-30T04:59:58.000Z,273.46
2023-01-30T05:02:02.000Z,273.59
2023-01-30T05:03:29.000Z,273.59
2023-01-30T05:05:35.000Z,273.65
2023-01-30T05:06:59.000Z,273.65
2023-01-30T05:09:03.000Z,273.52
2023-01-30T05:10:28.000Z,273.46
2023-01-30T05:12:31.000Z,273.34
2023-01-30T05:13:57.000Z,273.27
2023-01-30T05:16:01.000Z,273.27
2023-01-30T05:17:25.000Z,273.27
2023-01-30T05:19:29.000Z,273.21
2023-01-30T05:20:54.000Z,273.21
2023-01-30T05:22:57.000Z,273.21
2023-01-30T05:24:22.000Z,273.21
2023-01-30T05:26:25.000Z,273.15
2023-01-30T05:29:15.000Z,273.15
2023-01-30T05:30:39.000Z,273.15
2023-01-30T05:32:43.000Z,273.21
2023-01-30T05:34:07.000Z,273.21
2023-01-30T05:36:11.000Z,273.15
2023-01-30T05:37:35.000Z,273.15
2023-01-30T05:39:38.000Z,273.15
2023-01-30T05:41:03.000Z,273.15
2023-01-30T05:43:06.000Z,273.09
2023-01-30T05:44:31.000Z,273.15
2023-01-30T05:46:34.000Z,273.09
2023-01-30T05:47:59.000Z,273.09
2023-01-30T05:50:03.000Z,273.09
2023-01-30T05:51:27.000Z,273.09
2023-01-30T05:53:31.000Z,273.09
2023-01-30T05:54:55.000Z,273.09
2023-01-30T05:56:59.000Z,273.09
2023-01-30T05:58:23.000Z,273.15
2023-01-30T06:00:27.000Z,273.09
2023-01-30T06:01:51.000Z,273.15
2023-01-30T06:03:55.000Z,273.15
2023-01-30T06:06:44.000Z,273.15
2023-01-30T06:08:08.000Z,273.15
2023-01-30T06:10:12.000Z,273.15
2023-01-30T06:11:36.000Z,273.15
2023-01-30T06:13:40.000Z,273.15
2023-01-30T06:15:04.000Z,273.15
2023-01-30T06:17:08.000Z,273.15
2023-01-30T06:18:32.000Z,273.15
2023-01-30T06:20:36.000Z,273.21
2023-01-30T06:22:00.000Z,273.21
2023-01-30T06:24:03.000Z,273.15
2023-01-30T06:25:28.000Z,273.21
2023-01-30T06:27:31.000Z,273.21
2023-01-30T06:28:56.000Z,273.21
2023-01-30T06:30:59.000Z,273.21
2023-01-30T06:32:24.000Z,273.21
2023-01-30T06:34:27.000Z,273.21
2023-01-30T06:35:52.000Z,273.27
2023-01-30T06:37:55.000Z,273.27
2023-01-30T06:39:20.000Z,273.4
2023-01-30T06:41:23.000Z,273.34
2023-01-30T06:44:12.000Z,273.34
2023-01-30T06:45:37.000Z,273.34
2023-01-30T06:47:41.000Z,273.34
2023-01-30T06:49:05.000Z,273.4
2023-01-30T06:51:09.000Z,273.4
2023-01-30T06:52:33.000Z,273.34
2023-01-30T06:54:37.000Z,273.34
2023-01-30T06:56:01.000Z,273.34
2023-01-30T06:58:05.000Z,273.34
2023-01-30T06:59:29.000Z,273.34
2023-01-30T07:01:33.000Z,273.34
2023-01-30T07:02:58.000Z,273.34
2023-01-30T07:05:01.000Z,273.34
2023-01-30T07:06:26.000Z,273.34
2023-01-30T07:08:30.000Z,273.34
2023-01-30T07:09:54.000Z,273.34
2023-01-30T07:12:09.000Z,273.34
2023-01-30T07:13:34.000Z,273.34
2023-01-30T07:15:37.000Z,273.34
2023-01-30T07:17:02.000Z,273.4
2023-01-30T07:19:06.000Z,273.34
2023-01-30T07:21:55.000Z,273.34
2023-01-30T07:23:19.000Z,273.34
2023-01-30T07:25:23.000Z,273.4
2023-01-30T07:26:47.000Z,273.4
2023-01-30T07:28:51.000Z,273.4
2023-01-30T07:30:16.000Z,273.4
2023-01-30T07:32:19.000Z,273.46
2023-01-30T07:33:44.000Z,273.46
2023-01-30T07:35:47.000Z,273.46
2023-01-30T07:37:12.000Z,273.4
2023-01-30T07:39:15.000Z,273.46
2023-01-30T07:40:40.000Z,273.46
2023-01-30T07:42:45.000Z,273.46
2023-01-30T07:44:11.000Z,273.46
2023-01-30T07:46:16.000Z,273.52
2023-01-30T07:47:40.000Z,273.52
2023-01-30T07:49:44.000Z,273.46
2023-01-30T07:51:08.000Z,273.52
2023-01-30T07:53:14.000Z,273.59
2023-01-30T07:54:40.000Z,273.59
2023-01-30T07:56:46.000Z,273.59
2023-01-30T07:59:37.000Z,273.52
2023-01-30T08:01:01.000Z,273.59
2023-01-30T08:03:07.000Z,273.59
2023-01-30T08:04:34.000Z,273.59
2023-01-30T08:06:40.000Z,273.59
2023-01-30T08:08:04.000Z,273.65
2023-01-30T08:10:09.000Z,273.59
2023-01-30T08:11:36.000Z,273.65
2023-01-30T08:13:42.000Z,273.65
2023-01-30T08:15:09.000Z,273.65
2023-01-30T08:17:15.000Z,273.71
2023-01-30T08:18:41.000Z,273.71
2023-01-30T08:20:47.000Z,273.71
2023-01-30T08:22:14.000Z,273.77
2023-01-30T08:24:20.000Z,273.77
2023-01-30T08:25:47.000Z,273.77
2023-01-30T08:27:53.000Z,273.77
2023-01-30T08:29:19.000Z,273.84
2023-01-30T08:31:26.000Z,273.84
2023-01-30T08:32:52.000Z,273.84
2023-01-30T08:34:58.000Z,273.84
2023-01-30T08:37:50.000Z,273.84
2023-01-30T08:39:16.000Z,273.84
2023-01-30T08:41:22.000Z,273.84
2023-01-30T08:42:49.000Z,273.84
2023-01-30T08:44:55.000Z,273.84
2023-01-30T08:46:21.000Z,273.84
2023-01-30T08:48:27.000Z,273.9
2023-01-30T08:50:13.000Z,273.9
2023-01-30T08:52:19.000Z,273.96
2023-01-30T08:53:45.000Z,273.96
2023-01-30T08:55:51.000Z,273.96
2023-01-30T08:57:18.000Z,273.96
2023-01-30T08:59:24.000Z,274.09
2023-01-30T09:00:50.000Z,274.02
2023-01-30T09:02:57.000Z,274.02
2023-01-30T09:04:23.000Z,274.15
2023-01-30T09:06:29.000Z,274.15
2023-01-30T09:07:56.000Z,274.09
2023-01-30T09:10:02.000Z,274.02
2023-01-30T09:11:29.000Z,274.02
2023-01-30T09:13:35.000Z,274.02
2023-01-30T09:16:26.000Z,274.02
2023-01-30T09:17:53.000Z,274.02
2023-01-30T09:19:59.000Z,274.02
2023-01-30T09:21:25.000Z,274.02
2023-01-30T09:23:32.000Z,273.96
2023-01-30T09:24:58.000Z,273.96
2023-01-30T09:27:04.000Z,273.96
2023-01-30T09:28:31.000Z,273.96
2023-01-30T09:30:37.000Z,273.96
2023-01-30T09:32:03.000Z,273.96
2023-01-30T09:34:10.000Z,273.96
2023-01-30T09:35:36.000Z,273.96
2023-01-30T09:37:42.000Z,273.96
2023-01-30T09:39:09.000Z,273.96
2023-01-30T09:41:15.000Z,273.96
2023-01-30T09:42:41.000Z,273.96
2023-01-30T09:44:47.000Z,273.96
2023-01-30T09:46:14.000Z,273.96
2023-01-30T09:48:20.000Z,273.96
2023-01-30T09:49:47.000Z,274.02
2023-01-30T09:51:53.000Z,273.96
2023-01-30T09:54:44.000Z,274.02
2023-01-30T09:56:11.000Z,274.09
2023-01-30T09:58:17.000Z,274.09
2023-01-30T09:59:43.000Z,274.09
2023-01-30T10:01:49.000Z,274.09
2023-01-30T10:03:16.000Z,274.21
2023-01-30T10:05:22.000Z,274.34
2023-01-30T10:06:49.000Z,274.34
2023-01-30T10:08:55.000Z,274.46
2023-01-30T10:10:21.000Z,274.59
2023-01-30T10:12:27.000Z,274.71
2023-01-30T10:13:54.000Z,274.77
2023-01-30T10:16:00.000Z,274.84
2023-01-30T10:17:27.000Z,274.9
2023-01-30T10:19:36.000Z,274.9
2023-01-30T10:21:03.000Z,274.9
2023-01-30T10:23:09.000Z,274.9
2023-01-30T10:24:35.000Z,274.96
2023-01-30T10:26:41.000Z,274.96
2023-01-30T10:28:08.000Z,274.96
2023-01-30T10:30:14.000Z,275.02
2023-01-30T10:33:06.000Z,275.02
2023-01-30T10:34:33.000Z,275.09
2023-01-30T10:36:39.000Z,275.15
2023-01-30T10:38:06.000Z,275.15
2023-01-30T10:40:12.000Z,275.27
2023-01-30T10:41:38.000Z,275.34
2023-01-30T10:43:44.000Z,275.4
2023-01-30T10:45:11.000Z,275.52
2023-01-30T10:47:17.000Z,275.52
2023-01-30T10:48:47.000Z,275.65
2023-01-30T10:50:53.000Z,275.65
2023-01-30T10:52:19.000Z,275.71
2023-01-30T10:54:26.000Z,275.65
2023-01-30T10:55:52.000Z,275.65
2023-01-30T10:57:58.000Z,275.71
2023-01-30T10:59:25.000Z,275.71
2023-01-30T11:01:31.000Z,275.71
2023-01-30T11:02:58.000Z,275.71
2023-01-30T11:05:04.000Z,275.71
2023-01-30T11:06:30.000Z,275.71
2023-01-30T11:08:37.000Z,275.71
2023-01-30T11:11:28.000Z,275.71
2023-01-30T11:12:54.000Z,275.65
2023-01-30T11:15:01.000Z,275.71
2023-01-30T11:16:27.000Z,275.71
2023-01-30T11:18:33.000Z,275.65
2023-01-30T11:20:44.000Z,275.59
2023-01-30T11:22:52.000Z,275.52
2023-01-30T11:24:18.000Z,275.52
2023-01-30T11:26:24.000Z,275.4
2023-01-30T11:28:05.000Z,275.4
2023-01-30T11:30:12.000Z,275.4
2023-01-30T11:31:38.000Z,275.46
2023-01-30T11:33:46.000Z,275.46
2023-01-30T11:35:12.000Z,275.52
2023-01-30T11:37:18.000Z,275.59
2023-01-30T11:38:45.000Z,275.59
2023-01-30T11:40:51.000Z,275.52
2023-01-30T11:42:17.000Z,275.52
2023-01-30T11:44:24.000Z,275.59
2023-01-30T11:45:50.000Z,275.71
2023-01-30T11:47:56.000Z,275.77
2023-01-30T11:50:53.000Z,275.77
2023-01-30T11:52:20.000Z,275.84
2023-01-30T11:54:26.000Z,276.09
2023-01-30T11:55:53.000Z,276.15
2023-01-30T11:58:09.000Z,276.34
2023-01-30T11:59:36.000Z,276.34
2023-01-30T12:01:42.000Z,276.34
2023-01-30T12:03:08.000Z,276.4
2023-01-30T12:05:15.000Z,276.46
2023-01-30T12:06:41.000Z,276.4
2023-01-30T12:08:47.000Z,276.52
2023-01-30T12:10:14.000Z,276.52
2023-01-30T12:12:20.000Z,276.59
2023-01-30T12:13:47.000Z,276.65
2023-01-30T12:15:53.000Z,276.71
2023-01-30T12:17:20.000Z,276.71
2023-01-30T12:19:26.000Z,276.84
2023-01-30T12:20:52.000Z,276.84
2023-01-30T12:22:58.000Z,276.96
2023-01-30T12:24:25.000Z,277.02
2023-01-30T12:26:31.000Z,276.84
2023-01-30T12:29:22.000Z,276.84
2023-01-30T12:30:48.000Z,276.9
2023-01-30T12:32:55.000Z,276.84
2023-01-30T12:34:21.000Z,276.84
2023-01-30T12:36:31.000Z,276.96
2023-01-30T12:37:58.000Z,276.9
2023-01-30T12:40:04.000Z,276.9
2023-01-30T12:41:30.000Z,276.9
2023-01-30T12:43:36.000Z,276.96
2023-01-30T12:45:03.000Z,276.96
2023-01-30T12:47:09.000Z,276.96
2023-01-30T12:48:36.000Z,276.96
2023-01-30T12:50:52.000Z,276.96
2023-01-30T12:52:19.000Z,277.02
2023-01-30T12:54:25.000Z,276.96
2023-01-30T12:55:52.000Z,276.96
2023-01-30T12:57:58.000Z,276.9
2023-01-30T12:59:24.000Z,276.84
2023-01-30T13:01:30.000Z,276.71
2023-01-30T13:02:57.000Z,276.77
2023-01-30T13:05:03.000Z,276.96
2023-01-30T13:07:54.000Z,277.09
2023-01-30T13:09:21.000Z,277.09
2023-01-30T13:11:27.000Z,277.15
2023-01-30T13:12:54.000Z,277.15
2023-01-30T13:15:00.000Z,277.15
2023-01-30T13:16:26.000Z,277.09
2023-01-30T13:18:32.000Z,277.15
2023-01-30T13:19:59.000Z,277.15
2023-01-30T13:22:05.000Z,277.21
2023-01-30T13:23:32.000Z,277.27
2023-01-30T13:25:38.000Z,277.34
2023-01-30T13:27:04.000Z,277.34
2023-01-30T13:29:10.000Z,277.4
2023-01-30T13:30:37.000Z,277.4
2023-01-30T13:32:43.000Z,277.34
2023-01-30T13:34:10.000Z,277.34
2023-01-30T13:36:16.000Z,277.34
2023-01-30T13:37:42.000Z,277.21
2023-01-30T13:39:48.000Z,277.27
2023-01-30T13:41:17.000Z,277.27
2023-01-30T13:43:23.000Z,277.21
2023-01-30T13:46:14.000Z,277.21
2023-01-30T13:47:41.000Z,277.27
2023-01-30T13:49:47.000Z,277.27
2023-01-30T13:51:13.000Z,277.27
2023-01-30T13:53:19.000Z,277.21
2023-01-30T13:54:46.000Z,277.27
2023-01-30T13:56:52.000Z,277.21
2023-01-30T13:58:19.000Z,277.21
2023-01-30T14:00:25.000Z,277.21
2023-01-30T14:01:51.000Z,277.21
2023-01-30T14:03:58.000Z,277.15
2023-01-30T14:05:24.000Z,277.21
2023-01-30T14:07:47.000Z,277.21
2023-01-30T14:09:14.000Z,277.21
2023-01-30T14:11:20.000Z,277.21
2023-01-30T14:12:46.000Z,277.15
2023-01-30T14:14:52.000Z,277.15
2023-01-30T14:16:19.000Z,277.15
2023-01-30T14:18:25.000Z,277.09
2023-01-30T14:19:52.000Z,277.09
2023-01-30T14:21:58.000Z,277.09
2023-01-30T14:24:49.000Z,277.09
2023-01-30T14:26:16.000Z,277.02
2023-01-30T14:28:22.000Z,276.96
2023-01-30T14:29:48.000Z,277.02
2023-01-30T14:31:54.000Z,276.9
2023-01-30T14:33:21.000Z,276.9
2023-01-30T14:35:27.000Z,276.9
2023-01-30T14:36:54.000Z,276.96
2023-01-30T14:39:00.000Z,277.02
2023-01-30T14:40:26.000Z,277.15
2023-01-30T14:42:33.000Z,277.34
2023-01-30T14:43:59.000Z,277.34
2023-01-30T14:46:05.000Z,277.27
2023-01-30T14:47:33.000Z,277.34
2023-01-30T14:49:51.000Z,277.34
2023-01-30T14:51:18.000Z,277.34
2023-01-30T14:53:24.000Z,277.34
2023-01-30T14:54:50.000Z,277.34
2023-01-30T14:56:56.000Z,277.27
2023-01-30T14:58:23.000Z,277.27
2023-01-30T15:00:29.000Z,277.27
2023-01-30T15:03:20.000Z,277.27
2023-01-30T15:04:47.000Z,277.27
2023-01-30T15:06:53.000Z,277.34
2023-01-30T15:08:20.000Z,277.4
2023-01-30T15:10:26.000Z,277.4
2023-01-30T15:11:52.000Z,277.4
2023-01-30T15:13:58.000Z,277.27
2023-01-30T15:15:25.000Z,277.27
2023-01-30T15:17:31.000Z,277.4
2023-01-30T15:18:57.000Z,277.34
2023-01-30T15:21:04.000Z,277.34
2023-01-30T15:22:30.000Z,277.4
2023-01-30T15:24:36.000Z,277.34
2023-01-30T15:26:03.000Z,277.34
2023-01-30T15:28:09.000Z,277.4
2023-01-30T15:29:35.000Z,277.52
2023-01-30T15:31:41.000Z,277.4
2023-01-30T15:33:08.000Z,277.34
2023-01-30T15:35:14.000Z,277.34
2023-01-30T15:36:41.000Z,277.4
2023-01-30T15:38:47.000Z,277.46
2023-01-30T15:41:38.000Z,277.34
2023-01-30T15:43:07.000Z,277.34
2023-01-30T15:45:13.000Z,277.27
2023-01-30T15:46:40.000Z,277.4
2023-01-30T15:48:46.000Z,277.34
2023-01-30T15:50:13.000Z,277.27
2023-01-30T15:52:19.000Z,277.15
2023-01-30T15:53:45.000Z,277.09
2023-01-30T15:55:52.000Z,277.21
2023-01-30T15:57:18.000Z,277.15
2023-01-30T15:59:24.000Z,277.02
2023-01-30T16:00:51.000Z,277.02
2023-01-30T16:02:57.000Z,277.02
2023-01-30T16:04:23.000Z,276.96
2023-01-30T16:06:29.000Z,276.9
2023-01-30T16:07:56.000Z,277.02
2023-01-30T16:10:02.000Z,277.02
2023-01-30T16:11:32.000Z,277.02
2023-01-30T16:13:38.000Z,276.96
2023-01-30T16:15:05.000Z,276.96
2023-01-30T16:17:33.000Z,276.96
2023-01-30T16:20:24.000Z,277.02
2023-01-30T16:21:51.000Z,276.96
2023-01-30T16:23:57.000Z,276.96
2023-01-30T16:25:23.000Z,276.96
2023-01-30T16:27:29.000Z,277.02
2023-01-30T16:28:56.000Z,277.15
2023-01-30T16:31:02.000Z,277.09
2023-01-30T16:32:29.000Z,277.09
2023-01-30T16:34:35.000Z,277.09
2023-01-30T16:36:01.000Z,277.09
2023-01-30T16:38:08.000Z,277.15
2023-01-30T16:39:34.000Z,277.15
2023-01-30T16:41:40.000Z,277.15
2023-01-30T16:43:07.000Z,277.27
2023-01-30T16:45:13.000Z,277.21
2023-01-30T16:46:39.000Z,277.21
2023-01-30T16:48:45.000Z,277.15
2023-01-30T16:50:12.000Z,277.21
2023-01-30T16:52:18.000Z,277.21
2023-01-30T16:53:44.000Z,277.15
2023-01-30T16:55:51.000Z,277.21
2023-01-30T16:58:42.000Z,277.21
2023-01-30T17:00:08.000Z,277.27
2023-01-30T17:02:14.000Z,277.21
2023-01-30T17:03:41.000Z,277.21
2023-01-30T17:05:47.000Z,277.09
2023-01-30T17:07:14.000Z,277.09
2023-01-30T17:09:20.000Z,277.09
2023-01-30T17:10:46.000Z,277.09
2023-01-30T17:12:52.000Z,277.02
2023-01-30T17:14:19.000Z,277.02
2023-01-30T17:16:25.000Z,276.96
2023-01-30T17:17:52.000Z,276.96
2023-01-30T17:19:58.000Z,276.9
2023-01-30T17:21:24.000Z,276.9
2023-01-30T17:23:30.000Z,276.9
2023-01-30T17:24:58.000Z,276.9
2023-01-30T17:27:04.000Z,276.96
2023-01-30T17:28:30.000Z,276.9
2023-01-30T17:30:36.000Z,276.9
2023-01-30T17:32:05.000Z,276.9
2023-01-30T17:34:11.000Z,276.84
2023-01-30T17:37:02.000Z,276.96
2023-01-30T17:38:28.000Z,276.9
2023-01-30T17:40:34.000Z,276.84
2023-01-30T17:42:01.000Z,276.84
2023-01-30T17:44:07.000Z,276.84
2023-01-30T17:45:34.000Z,276.84
2023-01-30T17:47:40.000Z,276.9
2023-01-30T17:49:06.000Z,276.84
2023-01-30T17:51:13.000Z,276.77
2023-01-30T17:52:39.000Z,276.84
2023-01-30T17:54:45.000Z,276.84
2023-01-30T17:56:12.000Z,276.9
2023-01-30T17:58:18.000Z,276.84
2023-01-30T17:59:44.000Z,276.84
2023-01-30T18:01:50.000Z,276.84
2023-01-30T18:03:17.000Z,276.77
2023-01-30T18:05:23.000Z,276.77
2023-01-30T18:06:50.000Z,276.84
2023-01-30T18:08:56.000Z,276.77
2023-01-30T18:10:22.000Z,276.84
2023-01-30T18:12:28.000Z,276.84
2023-01-30T18:15:19.000Z,276.77
2023-01-30T18:16:46.000Z,276.71
2023-01-30T18:18:52.000Z,276.77
2023-01-30T18:20:19.000Z,276.84
2023-01-30T18:22:25.000Z,276.77
2023-01-30T18:23:52.000Z,276.71
2023-01-30T18:25:58.000Z,276.71
2023-01-30T18:27:24.000Z,276.9
2023-01-30T18:29:31.000Z,276.84
2023-01-30T18:30:57.000Z,276.84
2023-01-30T18:33:04.000Z,276.71
2023-01-30T18:34:30.000Z,276.77
2023-01-30T18:36:36.000Z,276.77
2023-01-30T18:38:03.000Z,276.77
2023-01-30T18:40:09.000Z,276.77
2023-01-30T18:41:35.000Z,276.71
2023-01-30T18:43:42.000Z,276.71
2023-01-30T18:45:08.000Z,276.77
2023-01-30T18:47:14.000Z,276.77
2023-01-30T18:48:41.000Z,276.77
2023-01-30T18:50:47.000Z,276.77
2023-01-30T18:53:38.000Z,276.71
2023-01-30T18:55:04.000Z,276.71
2023-01-30T18:57:10.000Z,276.65
2023-01-30T18:58:37.000Z,276.59
2023-01-30T19:00:43.000Z,276.59
2023-01-30T19:02:09.000Z,276.46
2023-01-30T19:04:15.000Z,276.46
2023-01-30T19:05:42.000Z,276.46
2023-01-30T19:07:48.000Z,276.46
2023-01-30T19:09:14.000Z,276.46
2023-01-30T19:11:21.000Z,276.59
2023-01-30T19:12:47.000Z,276.65
2023-01-30T19:14:53.000Z,276.65
2023-01-30T19:16:20.000Z,276.65
2023-01-30T19:18:26.000Z,276.71
2023-01-30T19:19:53.000Z,276.65
2023-01-30T19:21:59.000Z,276.71
2023-01-30T19:23:25.000Z,276.71
2023-01-30T19:25:31.000Z,276.77
2023-01-30T19:26:58.000Z,276.77
2023-01-30T19:29:04.000Z,276.77
2023-01-30T19:31:56.000Z,276.77
2023-01-30T19:33:22.000Z,276.71
2023-01-30T19:35:28.000Z,276.65
2023-01-30T19:36:55.000Z,276.71
2023-01-30T19:39:01.000Z,276.65
2023-01-30T19:40:28.000Z,276.65
2023-01-30T19:42:34.000Z,276.65
2023-01-30T19:44:04.000Z,276.65
2023-01-30T19:46:10.000Z,276.65
2023-01-30T19:47:37.000Z,276.65
2023-01-30T19:49:43.000Z,276.59
2023-01-30T19:51:10.000Z,276.59
2023-01-30T19:53:16.000Z,276.59
2023-01-30T19:54:42.000Z,276.52
2023-01-30T19:56:49.000Z,276.46
2023-01-30T19:58:15.000Z,276.46
2023-01-30T20:00:21.000Z,276.4
2023-01-30T20:01:48.000Z,276.46
2023-01-30T20:03:54.000Z,276.4
2023-01-30T20:05:20.000Z,276.4
2023-01-30T20:07:27.000Z,276.46
2023-01-30T20:10:19.000Z,276.46
2023-01-30T20:11:46.000Z,276.4
2023-01-30T20:13:52.000Z,276.4
2023-01-30T20:15:18.000Z,276.4
2023-01-30T20:17:25.000Z,276.4
2023-01-30T20:18:51.000Z,276.4
2023-01-30T20:20:57.000Z,276.46
2023-01-30T20:22:24.000Z,276.46
2023-01-30T20:24:30.000Z,276.4
2023-01-30T20:25:56.000Z,276.34
2023-01-30T20:28:02.000Z,276.4
2023-01-30T20:29:29.000Z,276.46
2023-01-30T20:31:35.000Z,276.4
2023-01-30T20:33:02.000Z,276.46
2023-01-30T20:35:08.000Z,276.4
2023-01-30T20:36:34.000Z,276.34
2023-01-30T20:38:40.000Z,276.4
2023-01-30T20:40:07.000Z,276.46
2023-01-30T20:42:13.000Z,276.46
2023-01-30T20:43:40.000Z,276.4
2023-01-30T20:45:46.000Z,276.4
2023-01-30T20:48:37.000Z,276.4
2023-01-30T20:50:04.000Z,276.4
2023-01-30T20:52:10.000Z,276.34
2023-01-30T20:53:37.000Z,276.4
2023-01-30T20:55:43.000Z,276.34
2023-01-30T20:57:10.000Z,276.34
2023-01-30T20:59:16.000Z,276.27
2023-01-30T21:00:42.000Z,276.21
2023-01-30T21:02:48.000Z,276.21
2023-01-30T21:04:15.000Z,276.21
2023-01-30T21:06:21.000Z,276.15
2023-01-30T21:08:07.000Z,276.15
2023-01-30T21:10:13.000Z,276.21
2023-01-30T21:11:40.000Z,276.15
2023-01-30T21:13:46.000Z,276.09
2023-01-30T21:15:12.000Z,276.15
2023-01-30T21:17:19.000Z,276.21
2023-01-30T21:18:45.000Z,276.21
2023-01-30T21:20:51.000Z,276.27
2023-01-30T21:22:18.000Z,276.27
2023-01-30T21:24:24.000Z,276.34
2023-01-30T21:27:15.000Z,276.34
2023-01-30T21:28:42.000Z,276.27
2023-01-30T21:30:48.000Z,276.34
2023-01-30T21:32:14.000Z,276.4
2023-01-30T21:34:20.000Z,276.4
2023-01-30T21:35:47.000Z,276.4
2023-01-30T21:37:53.000Z,276.34
2023-01-30T21:39:20.000Z,276.4
2023-01-30T21:41:26.000Z,276.46
2023-01-30T21:42:52.000Z,276.46
2023-01-30T21:44:58.000Z,276.4
2023-01-30T21:46:25.000Z,276.34
2023-01-30T21:48:31.000Z,276.4
2023-01-30T21:49:58.000Z,276.46
2023-01-30T21:52:04.000Z,276.52
2023-01-30T21:53:30.000Z,276.52
2023-01-30T21:55:36.000Z,276.52
2023-01-30T21:57:03.000Z,276.52
2023-01-30T21:59:09.000Z,276.52
2023-01-30T22:00:36.000Z,276.46
2023-01-30T22:02:42.000Z,276.46
2023-01-30T22:05:33.000Z,276.52
2023-01-30T22:06:59.000Z,276.46
2023-01-30T22:09:05.000Z,276.52
2023-01-30T22:10:32.000Z,276.52
2023-01-30T22:12:38.000Z,276.46
2023-01-30T22:14:04.000Z,276.4
2023-01-30T22:16:10.000Z,276.4
2023-01-30T22:17:37.000Z,276.4
2023-01-30T22:19:44.000Z,276.46
2023-01-30T22:21:10.000Z,276.46
2023-01-30T22:23:16.000Z,276.52
2023-01-30T22:24:43.000Z,276.52
2023-01-30T22:26:49.000Z,276.4
2023-01-30T22:28:16.000Z,276.46
2023-01-30T22:30:22.000Z,276.4
2023-01-30T22:31:49.000Z,276.46
2023-01-30T22:33:55.000Z,276.46
2023-01-30T22:35:22.000Z,276.52
2023-01-30T22:37:28.000Z,276.52
2023-01-30T22:38:55.000Z,276.46
2023-01-30T22:41:01.000Z,276.4
2023-01-30T22:43:52.000Z,276.46
2023-01-30T22:45:19.000Z,276.4
2023-01-30T22:47:25.000Z,276.52